createdAt,value
2019-01-26T00:03:34.340Z,95.80
2019-01-26T00:08:50.724Z,95.90
2019-01-26T00:14:06.895Z,95.90
2019-01-26T00:19:23.110Z,95.90
2019-01-26T00:24:39.678Z,95.90
2019-01-26T00:29:56.014Z,95.90
2019-01-26T00:35:12.661Z,95.90
2019-01-26T00:40:28.490Z,95.90
2019-01-26T00:45:44.811Z,95.90
2019-01-26T00:51:01.564Z,96.00
2019-01-26T00:56:17.394Z,95.90
2019-01-26T01:01:34.030Z,95.90
2019-01-26T01:06:49.910Z,96.00
2019-01-26T01:12:06.388Z,96.00
2019-01-26T01:17:22.702Z,95.90
2019-01-26T01:22:39.043Z,95.90
2019-01-26T01:27:55.430Z,96.10
2019-01-26T01:33:13.159Z,96.10
2019-01-26T01:38:29.149Z,96.10
2019-01-26T01:43:45.654Z,96.10
2019-01-26T01:49:01.865Z,96.10
2019-01-26T01:54:17.907Z,96.10
2019-01-26T01:59:35.210Z,96.10
2019-01-26T02:04:51.643Z,96.10
2019-01-26T02:10:07.931Z,96.20
2019-01-26T02:15:24.311Z,96.10
2019-01-26T02:20:40.366Z,96.00
2019-01-26T02:25:56.701Z,95.90
2019-01-26T02:31:13.060Z,95.80
2019-01-26T02:36:29.786Z,95.90
2019-01-26T02:41:46.171Z,95.70
2019-01-26T02:47:02.417Z,95.70
2019-01-26T02:52:18.837Z,95.70
2019-01-26T02:57:35.237Z,95.70
2019-01-26T03:02:51.627Z,95.70
2019-01-26T03:08:08.200Z,95.70
2019-01-26T03:13:24.668Z,95.70
2019-01-26T03:18:40.865Z,95.60
2019-01-26T03:23:57.549Z,95.70
2019-01-26T03:29:13.257Z,95.70
2019-01-26T03:34:29.506Z,95.80
2019-01-26T03:39:45.923Z,95.80
2019-01-26T03:45:01.681Z,95.60
2019-01-26T03:50:18.109Z,95.70
2019-01-26T03:55:34.087Z,95.60
2019-01-26T04:00:50.494Z,95.50
2019-01-26T04:06:06.313Z,95.60
2019-01-26T04:11:22.795Z,95.50
2019-01-26T04:16:39.078Z,95.50
2019-01-26T04:21:55.408Z,95.50
2019-01-26T04:27:11.527Z,95.50
2019-01-26T04:32:27.977Z,95.50
2019-01-26T04:37:44.375Z,95.50
2019-01-26T04:43:00.714Z,95.40
2019-01-26T04:48:16.538Z,95.40
2019-01-26T04:53:33.039Z,95.30
2019-01-26T04:58:50.527Z,95.30
2019-01-26T05:04:07.134Z,95.30
2019-01-26T05:09:23.448Z,95.30
2019-01-26T05:14:40.685Z,95.20
2019-01-26T05:19:57.046Z,95.20
2019-01-26T05:25:13.634Z,95.20
2019-01-26T05:30:30.379Z,95.10
2019-01-26T05:35:46.934Z,95.10
2019-01-26T05:41:03.466Z,95.00
2019-01-26T05:46:20.642Z,94.90
2019-01-26T05:51:36.569Z,94.80
2019-01-26T05:56:53.238Z,94.70
2019-01-26T06:02:09.774Z,94.60
2019-01-26T06:07:26.420Z,94.50
2019-01-26T06:12:42.747Z,94.30
2019-01-26T06:17:59.016Z,94.30
2019-01-26T06:23:15.131Z,94.10
2019-01-26T06:28:31.560Z,94.20
2019-01-26T06:33:47.870Z,94.10
2019-01-26T06:39:05.769Z,94.20
2019-01-26T06:44:21.575Z,94.10
2019-01-26T06:49:37.293Z,94.20
2019-01-26T06:54:53.873Z,94.10
2019-01-26T07:00:10.223Z,94.00
2019-01-26T07:05:44.887Z,93.80
2019-01-26T07:11:02.194Z,93.80
2019-01-26T07:16:22.162Z,93.60
2019-01-26T07:21:37.978Z,93.30
2019-01-26T07:26:54.593Z,93.50
2019-01-26T07:32:11.234Z,93.30
2019-01-26T07:37:27.596Z,93.20
2019-01-26T07:42:44.129Z,93.30
2019-01-26T07:47:59.842Z,93.30
2019-01-26T07:53:16.529Z,93.10
2019-01-26T07:58:32.294Z,93.20
2019-01-26T08:03:48.125Z,93.40
2019-01-26T08:09:06.305Z,93.30
2019-01-26T08:14:22.141Z,93.20
2019-01-26T08:19:40.034Z,93.10
2019-01-26T08:24:55.975Z,93.00
2019-01-26T08:30:12.130Z,92.70
2019-01-26T08:35:28.402Z,92.80
2019-01-26T08:40:44.569Z,92.80
2019-01-26T08:46:00.845Z,92.70
2019-01-26T08:51:17.032Z,92.60
2019-01-26T08:56:33.720Z,92.50
2019-01-26T09:01:51.791Z,92.30
2019-01-26T09:07:08.079Z,92.30
2019-01-26T09:12:24.202Z,92.10
2019-01-26T09:17:40.788Z,92.00
2019-01-26T09:22:57.367Z,92.00
2019-01-26T09:28:13.685Z,91.90
2019-01-26T09:33:29.778Z,91.60
2019-01-26T09:38:46.239Z,91.60
2019-01-26T09:44:02.670Z,91.70
2019-01-26T09:49:19.030Z,91.70
2019-01-26T09:54:34.807Z,91.70
2019-01-26T09:59:51.373Z,92.10
2019-01-26T10:05:07.198Z,91.90
2019-01-26T10:10:23.570Z,92.00
2019-01-26T10:15:39.966Z,92.00
2019-01-26T10:20:56.415Z,92.00
2019-01-26T10:26:12.528Z,92.00
2019-01-26T10:31:28.914Z,91.90
2019-01-26T10:42:33.461Z,91.90
2019-01-26T10:47:49.474Z,91.80
2019-01-26T10:53:06.130Z,91.70
2019-01-26T10:58:22.765Z,91.70
2019-01-26T11:03:39.209Z,91.70
2019-01-26T11:08:55.881Z,91.80
2019-01-26T11:14:11.929Z,91.80
2019-01-26T11:19:28.490Z,91.80
2019-01-26T11:24:44.725Z,91.60
2019-01-26T11:30:00.642Z,91.80
2019-01-26T11:35:17.192Z,91.80
2019-01-26T11:40:33.718Z,91.70
2019-01-26T11:57:22.513Z,91.70
2019-01-26T12:02:57.138Z,91.40
2019-01-26T12:08:14.449Z,91.40
2019-01-26T12:13:30.721Z,91.20
2019-01-26T12:18:47.256Z,91.10
2019-01-26T12:24:03.751Z,91.00
2019-01-26T12:29:20.241Z,90.90
2019-01-26T12:34:36.602Z,90.60
2019-01-26T12:39:52.356Z,90.60
2019-01-26T12:45:08.881Z,90.40
2019-01-26T12:50:25.224Z,90.40
2019-01-26T12:55:41.307Z,90.20
2019-01-26T13:00:57.873Z,90.00
2019-01-26T13:06:14.247Z,90.20
2019-01-26T13:11:30.371Z,89.80
2019-01-26T13:16:46.861Z,90.10
2019-01-26T13:22:03.429Z,89.30
2019-01-26T13:27:19.532Z,89.30
2019-01-26T13:32:35.707Z,89.40
2019-01-26T13:37:51.909Z,88.70
2019-01-26T13:43:07.656Z,88.50
2019-01-26T13:48:24.079Z,88.70
2019-01-26T13:53:40.163Z,89.00
2019-01-26T13:58:56.029Z,90.00
2019-01-26T14:04:12.196Z,89.80
2019-01-26T14:09:28.001Z,90.40
2019-01-26T14:14:44.353Z,90.90
2019-01-26T14:20:01.048Z,91.20
2019-01-26T14:25:17.603Z,91.00
2019-01-26T14:30:34.281Z,91.10
2019-01-26T14:35:50.491Z,91.10
2019-01-26T14:41:06.820Z,91.10
2019-01-26T14:46:23.533Z,91.20
2019-01-26T14:51:39.528Z,91.10
2019-01-26T14:56:55.533Z,91.10
2019-01-26T15:02:11.916Z,90.90
2019-01-26T15:07:28.484Z,90.90
2019-01-26T15:12:44.302Z,90.90
2019-01-26T15:18:00.939Z,90.80
2019-01-26T15:23:17.348Z,90.70
2019-01-26T15:28:33.728Z,90.70
2019-01-26T15:33:49.453Z,90.50
2019-01-26T15:39:05.991Z,90.20
2019-01-26T15:44:22.409Z,90.20
2019-01-26T15:49:38.809Z,90.60
2019-01-26T15:54:55.300Z,90.80
2019-01-26T16:00:11.646Z,91.00
2019-01-26T16:05:28.121Z,91.10
2019-01-26T16:10:44.890Z,91.50
2019-01-26T16:16:01.595Z,91.60
2019-01-26T16:21:17.970Z,91.70
2019-01-26T16:26:34.413Z,91.70
2019-01-26T16:31:51.140Z,91.60
2019-01-26T16:37:07.759Z,91.60
2019-01-26T16:42:23.594Z,91.80
2019-01-26T16:47:40.320Z,92.00
2019-01-26T16:52:56.684Z,92.30
2019-01-26T16:58:12.475Z,92.40
2019-01-26T17:03:28.243Z,92.50
2019-01-26T17:08:44.777Z,92.80
2019-01-26T17:14:01.024Z,92.70
2019-01-26T17:19:17.568Z,93.00
2019-01-26T17:24:33.773Z,93.30
2019-01-26T17:29:50.508Z,94.10
2019-01-26T17:35:06.529Z,93.80
2019-01-26T17:40:22.977Z,93.90
2019-01-26T17:45:38.588Z,94.50
2019-01-26T17:50:54.893Z,94.60
2019-01-26T17:56:11.309Z,94.70
2019-01-26T18:01:27.720Z,94.70
2019-01-26T18:06:44.159Z,94.90
2019-01-26T18:12:00.682Z,94.90
2019-01-26T18:17:17.084Z,94.80
2019-01-26T18:22:33.751Z,95.10
2019-01-26T18:27:50.043Z,95.70
2019-01-26T18:33:06.473Z,95.60
2019-01-26T18:38:22.246Z,95.50
2019-01-26T18:43:38.857Z,96.00
2019-01-26T18:48:54.794Z,95.80
2019-01-26T18:54:11.036Z,95.80
2019-01-26T18:59:26.760Z,95.30
2019-01-26T19:04:43.051Z,95.40
2019-01-26T19:09:59.362Z,95.20
2019-01-26T19:15:15.588Z,95.00
2019-01-26T19:20:32.068Z,94.90
2019-01-26T19:25:48.182Z,94.80
2019-01-26T19:31:04.356Z,94.80
2019-01-26T19:36:20.845Z,94.90
2019-01-26T19:41:37.492Z,94.90
2019-01-26T19:46:54.090Z,94.90
2019-01-26T19:52:10.412Z,94.70
2019-01-26T19:57:26.892Z,94.60
2019-01-26T20:02:42.715Z,94.40
2019-01-26T20:07:59.245Z,94.20
2019-01-26T20:13:15.598Z,93.90
2019-01-26T20:18:32.076Z,93.60
2019-01-26T20:23:48.338Z,92.30
2019-01-26T20:29:04.430Z,92.90
2019-01-26T20:34:20.744Z,92.30
2019-01-26T20:39:37.328Z,92.20
2019-01-26T20:44:53.731Z,91.70
2019-01-26T20:50:10.157Z,91.70
2019-01-26T20:55:26.740Z,91.80
2019-01-26T21:00:42.886Z,91.80
2019-01-26T21:05:59.556Z,91.80
2019-01-26T21:11:16.057Z,91.80
2019-01-26T21:16:32.546Z,91.80
2019-01-26T21:21:48.609Z,91.70
2019-01-26T21:27:04.389Z,91.80
2019-01-26T21:32:20.333Z,91.70
2019-01-26T21:37:36.100Z,91.40
2019-01-26T21:42:52.652Z,91.50
2019-01-26T21:48:08.606Z,91.30
2019-01-26T21:53:25.203Z,91.40
2019-01-26T21:58:42.160Z,91.20
2019-01-26T22:03:58.555Z,91.30
2019-01-26T22:09:14.858Z,91.30
2019-01-26T22:14:30.642Z,91.30
2019-01-26T22:19:47.014Z,91.40
2019-01-26T22:25:03.796Z,91.50
2019-01-26T22:30:19.830Z,91.50
2019-01-26T22:35:36.607Z,91.60
2019-01-26T22:40:53.493Z,91.70
2019-01-26T22:46:09.861Z,91.60
2019-01-26T22:51:25.661Z,91.70
2019-01-26T22:56:42.175Z,91.70
2019-01-26T23:01:59.164Z,91.70
2019-01-26T23:07:15.615Z,91.70
2019-01-26T23:12:32.382Z,91.60
2019-01-26T23:17:48.626Z,91.60
2019-01-26T23:23:06.137Z,91.60
2019-01-26T23:28:22.422Z,91.60
2019-01-26T23:33:38.862Z,91.60
2019-01-26T23:39:02.003Z,91.50
2019-01-26T23:44:12.952Z,91.50
2019-01-26T23:49:29.108Z,91.50
2019-01-26T23:54:45.658Z,91.50
